sensor_id;sensor_type;location;lat;lon;timestamp;pressure;altitude;pressure_sealevel;temperature;humidity
9141;BME280;46330;50.822;7.126;2023-02-02T00:01:26;101424.28;;;6.88;98.73
9141;BME280;46330;50.822;7.126;2023-02-02T00:03:54;101435.53;;;6.88;98.11
9141;BME280;46330;50.822;7.126;2023-02-02T00:06:24;101439.84;;;6.86;98.33
9141;BME280;46330;50.822;7.126;2023-02-02T00:08:55;101440.69;;;6.85;99.06
9141;BME280;46330;50.822;7.126;2023-02-02T00:11:24;101438.13;;;6.87;98.87
9141;BME280;46330;50.822;7.126;2023-02-02T00:13:52;101437.28;;;6.89;98.97
9141;BME280;46330;50.822;7.126;2023-02-02T00:16:39;101431.16;;;6.86;98.96
9141;BME280;46330;50.822;7.126;2023-02-02T00:19:10;101425.13;;;6.88;98.85
9141;BME280;46330;50.822;7.126;2023-02-02T00:21:38;101429.44;;;6.85;99.17
9141;BME280;46330;50.822;7.126;2023-02-02T00:24:07;101432.03;;;6.86;99.36
9141;BME280;46330;50.822;7.126;2023-02-02T00:26:36;101430.28;;;6.82;99.65
9141;BME280;46330;50.822;7.126;2023-02-02T00:29:05;101437.25;;;6.85;99.87
9141;BME280;46330;50.822;7.126;2023-02-02T00:31:33;101436.34;;;6.81;99.75
9141;BME280;46330;50.822;7.126;2023-02-02T00:34:03;101432.84;;;6.79;100.00
9141;BME280;46330;50.822;7.126;2023-02-02T00:36:30;101432.84;;;6.78;100.00
9141;BME280;46330;50.822;7.126;2023-02-02T00:38:58;101435.44;;;6.78;100.00
9141;BME280;46330;50.822;7.126;2023-02-02T00:41:27;101432.81;;;6.76;100.00
9141;BME280;46330;50.822;7.126;2023-02-02T00:43:54;101436.28;;;6.72;100.00
9141;BME280;46330;50.822;7.126;2023-02-02T00:46:40;101440.59;;;6.73;100.00
9141;BME280;46330;50.822;7.126;2023-02-02T00:49:09;101430.16;;;6.70;100.00
9141;BME280;46330;50.822;7.126;2023-02-02T00:51:37;101426.66;;;6.67;100.00
9141;BME280;46330;50.822;7.126;2023-02-02T00:54:05;101425.75;;;6.62;100.00
9141;BME280;46330;50.822;7.126;2023-02-02T00:56:33;101429.25;;;6.65;100.00
9141;BME280;46330;50.822;7.126;2023-02-02T00:59:01;101430.13;;;6.66;100.00
9141;BME280;46330;50.822;7.126;2023-02-02T01:01:29;101426.69;;;6.68;100.00
9141;BME280;46330;50.822;7.126;2023-02-02T01:03:57;101429.31;;;6.71;100.00
9141;BME280;46330;50.822;7.126;2023-02-02T01:06:27;101414.56;;;6.70;100.00
9141;BME280;46330;50.822;7.126;2023-02-02T01:08:55;101412.84;;;6.71;100.00
9141;BME280;46330;50.822;7.126;2023-02-02T01:11:24;101422.38;;;6.70;100.00
9141;BME280;46330;50.822;7.126;2023-02-02T01:13:52;101407.66;;;6.69;100.00
9141;BME280;46330;50.822;7.126;2023-02-02T01:16:20;101415.41;;;6.66;100.00
9141;BME280;46330;50.822;7.126;2023-02-02T01:18:49;101413.66;;;6.67;100.00
9141;BME280;46330;50.822;7.126;2023-02-02T01:21:17;101425.81;;;6.66;100.00
9141;BME280;46330;50.822;7.126;2023-02-02T01:23:47;101423.16;;;6.63;100.00
9141;BME280;46330;50.822;7.126;2023-02-02T01:26:16;101419.72;;;6.64;100.00
9141;BME280;46330;50.822;7.126;2023-02-02T01:28:44;101418.03;;;6.66;100.00
9141;BME280;46330;50.822;7.126;2023-02-02T01:31:14;101429.25;;;6.67;100.00
9141;BME280;46330;50.822;7.126;2023-02-02T01:33:42;101431.00;;;6.66;100.00
9141;BME280;46330;50.822;7.126;2023-02-02T01:36:13;101435.38;;;6.69;100.00
9141;BME280;46330;50.822;7.126;2023-02-02T01:38:42;101444.06;;;6.74;100.00
9141;BME280;46330;50.822;7.126;2023-02-02T01:41:15;101444.94;;;6.76;100.00
9141;BME280;46330;50.822;7.126;2023-02-02T01:43:52;101438.88;;;6.72;100.00
9141;BME280;46330;50.822;7.126;2023-02-02T01:46:23;101441.47;;;6.72;100.00
9141;BME280;46330;50.822;7.126;2023-02-02T01:48:56;101435.38;;;6.69;100.00
9141;BME280;46330;50.822;7.126;2023-02-02T01:51:29;101447.44;;;6.64;100.00
9141;BME280;46330;50.822;7.126;2023-02-02T01:53:59;101437.84;;;6.58;100.00
9141;BME280;46330;50.822;7.126;2023-02-02T01:56:32;101446.50;;;6.57;100.00
9141;BME280;46330;50.822;7.126;2023-02-02T01:59:01;101446.44;;;6.49;100.00
9141;BME280;46330;50.822;7.126;2023-02-02T02:01:30;101452.44;;;6.44;100.00
9141;BME280;46330;50.822;7.126;2023-02-02T02:03:58;101454.97;;;6.39;100.00
9141;BME280;46330;50.822;7.126;2023-02-02T02:06:27;101450.59;;;6.34;100.00
9141;BME280;46330;50.822;7.126;2023-02-02T02:08:58;101460.16;;;6.35;100.00
9141;BME280;46330;50.822;7.126;2023-02-02T02:11:31;101462.72;;;6.32;100.00
9141;BME280;46330;50.822;7.126;2023-02-02T02:14:03;101456.63;;;6.33;100.00
9141;BME280;46330;50.822;7.126;2023-02-02T02:16:57;101460.97;;;6.31;100.00
9141;BME280;46330;50.822;7.126;2023-02-02T02:23:12;101458.41;;;6.34;100.00
9141;BME280;46330;50.822;7.126;2023-02-02T02:26:24;101454.00;;;6.30;100.00
9141;BME280;46330;50.822;7.126;2023-02-02T02:29:22;101447.94;;;6.29;100.00
9141;BME280;46330;50.822;7.126;2023-02-02T02:32:05;101438.41;;;6.30;100.00
9141;BME280;46330;50.822;7.126;2023-02-02T02:34:51;101452.28;;;6.30;100.00
9141;BME280;46330;50.822;7.126;2023-02-02T02:37:29;101447.13;;;6.33;100.00
9141;BME280;46330;50.822;7.126;2023-02-02T02:40:02;101448.00;;;6.34;100.00
9141;BME280;46330;50.822;7.126;2023-02-02T02:42:36;101447.16;;;6.36;100.00
9141;BME280;46330;50.822;7.126;2023-02-02T02:45:07;101438.53;;;6.37;100.00
9141;BME280;46330;50.822;7.126;2023-02-02T02:47:38;101439.38;;;6.35;100.00
9141;BME280;46330;50.822;7.126;2023-02-02T02:50:09;101429.81;;;6.34;100.00
9141;BME280;46330;50.822;7.126;2023-02-02T02:52:37;101437.59;;;6.35;100.00
9141;BME280;46330;50.822;7.126;2023-02-02T02:55:07;101433.28;;;6.34;100.00
9141;BME280;46330;50.822;7.126;2023-02-02T02:57:49;101438.50;;;6.39;100.00
9141;BME280;46330;50.822;7.126;2023-02-02T03:00:33;101445.47;;;6.40;100.00
9141;BME280;46330;50.822;7.126;2023-02-02T03:03:10;101440.28;;;6.40;100.00
9141;BME280;46330;50.822;7.126;2023-02-02T03:05:48;101445.47;;;6.40;100.00
9141;BME280;46330;50.822;7.126;2023-02-02T03:08:22;101437.69;;;6.44;100.00
9141;BME280;46330;50.822;7.126;2023-02-02T03:10:51;101442.09;;;6.47;100.00
9141;BME280;46330;50.822;7.126;2023-02-02T03:13:19;101443.84;;;6.49;100.00
9141;BME280;46330;50.822;7.126;2023-02-02T03:15:47;101455.94;;;6.47;100.00
9141;BME280;46330;50.822;7.126;2023-02-02T03:18:19;101448.19;;;6.51;100.00
9141;BME280;46330;50.822;7.126;2023-02-02T03:20:49;101446.44;;;6.49;100.00
9141;BME280;46330;50.822;7.126;2023-02-02T03:23:17;101447.31;;;6.50;100.00
9141;BME280;46330;50.822;7.126;2023-02-02T03:25:45;101445.56;;;6.49;100.00
9141;BME280;46330;50.822;7.126;2023-02-02T03:28:13;101442.13;;;6.50;100.00
9141;BME280;46330;50.822;7.126;2023-02-02T03:30:42;101442.06;;;6.44;100.00
9141;BME280;46330;50.822;7.126;2023-02-02T03:33:12;101447.25;;;6.44;100.00
9141;BME280;46330;50.822;7.126;2023-02-02T03:35:42;101454.16;;;6.43;100.00
9141;BME280;46330;50.822;7.126;2023-02-02T03:38:09;101455.88;;;6.44;100.00
9141;BME280;46330;50.822;7.126;2023-02-02T03:40:38;101456.78;;;6.43;100.00
9141;BME280;46330;50.822;7.126;2023-02-02T03:43:06;101452.41;;;6.41;100.00
9141;BME280;46330;50.822;7.126;2023-02-02T03:45:34;101460.25;;;6.44;100.00
9141;BME280;46330;50.822;7.126;2023-02-02T03:48:03;101459.38;;;6.43;100.00
9141;BME280;46330;50.822;7.126;2023-02-02T03:50:31;101457.56;;;6.39;100.00
9141;BME280;46330;50.822;7.126;2023-02-02T03:53:01;101456.72;;;6.42;100.00
9141;BME280;46330;50.822;7.126;2023-02-02T03:55:29;101460.22;;;6.42;100.00
9141;BME280;46330;50.822;7.126;2023-02-02T03:57:57;101468.00;;;6.42;100.00
9141;BME280;46330;50.822;7.126;2023-02-02T04:00:25;101466.25;;;6.41;100.00
9141;BME280;46330;50.822;7.126;2023-02-02T04:02:52;101463.66;;;6.40;100.00
9141;BME280;46330;50.822;7.126;2023-02-02T04:05:20;101465.38;;;6.38;100.00
9141;BME280;46330;50.822;7.126;2023-02-02T04:07:49;101467.06;;;6.36;100.00
9141;BME280;46330;50.822;7.126;2023-02-02T04:10:18;101461.88;;;6.36;100.00
9141;BME280;46330;50.822;7.126;2023-02-02T04:12:46;101471.41;;;6.38;100.00
9141;BME280;46330;50.822;7.126;2023-02-02T04:15:14;101460.16;;;6.36;100.00
9141;BME280;46330;50.822;7.126;2023-02-02T04:17:42;101468.78;;;6.35;100.00
9141;BME280;46330;50.822;7.126;2023-02-02T04:20:11;101465.38;;;6.38;100.00
9141;BME280;46330;50.822;7.126;2023-02-02T04:22:38;101480.09;;;6.39;100.00
9141;BME280;46330;50.822;7.126;2023-02-02T04:25:07;101474.88;;;6.39;100.00
9141;BME280;46330;50.822;7.126;2023-02-02T04:27:36;101478.38;;;6.39;100.00
9141;BME280;46330;50.822;7.126;2023-02-02T04:30:05;101482.75;;;6.43;100.00
9141;BME280;46330;50.822;7.126;2023-02-02T04:32:33;101475.81;;;6.42;100.00
9141;BME280;46330;50.822;7.126;2023-02-02T04:35:01;101486.19;;;6.42;100.00
9141;BME280;46330;50.822;7.126;2023-02-02T04:37:29;101483.63;;;6.45;100.00
9141;BME280;46330;50.822;7.126;2023-02-02T04:39:57;101474.94;;;6.45;100.00
9141;BME280;46330;50.822;7.126;2023-02-02T04:42:25;101481.91;;;6.46;100.00
9141;BME280;46330;50.822;7.126;2023-02-02T04:44:54;101481.94;;;6.47;100.00
9141;BME280;46330;50.822;7.126;2023-02-02T04:47:22;101487.94;;;6.43;100.00
9141;BME280;46330;50.822;7.126;2023-02-02T04:49:50;101487.94;;;6.43;100.00
9141;BME280;46330;50.822;7.126;2023-02-02T04:52:18;101494.84;;;6.41;100.00
9141;BME280;46330;50.822;7.126;2023-02-02T04:54:46;101496.59;;;6.41;100.00
9141;BME280;46330;50.822;7.126;2023-02-02T04:57:13;101494.78;;;6.38;100.00
9141;BME280;46330;50.822;7.126;2023-02-02T04:59:43;101497.41;;;6.38;100.00
9141;BME280;46330;50.822;7.126;2023-02-02T05:02:12;101490.47;;;6.37;100.00
9141;BME280;46330;50.822;7.126;2023-02-02T05:04:40;101487.00;;;6.37;100.00
9141;BME280;46330;50.822;7.126;2023-02-02T05:07:08;101487.00;;;6.37;100.00
9141;BME280;46330;50.822;7.126;2023-02-02T05:09:35;101489.56;;;6.34;100.00
9141;BME280;46330;50.822;7.126;2023-02-02T05:12:04;101497.38;;;6.34;100.00
9141;BME280;46330;50.822;7.126;2023-02-02T05:14:31;101505.13;;;6.32;100.00
9141;BME280;46330;50.822;7.126;2023-02-02T05:16:59;101499.97;;;6.34;100.00
9141;BME280;46330;50.822;7.126;2023-02-02T05:19:29;101512.94;;;6.35;100.00
9141;BME280;46330;50.822;7.126;2023-02-02T05:21:57;101496.53;;;6.35;100.00
9141;BME280;46330;50.822;7.126;2023-02-02T05:24:25;101499.97;;;6.34;100.00
9141;BME280;46330;50.822;7.126;2023-02-02T05:26:53;101506.00;;;6.33;100.00
9141;BME280;46330;50.822;7.126;2023-02-02T05:29:26;101504.28;;;6.33;100.00
9141;BME280;46330;50.822;7.126;2023-02-02T05:31:54;101517.28;;;6.33;100.00
9141;BME280;46330;50.822;7.126;2023-02-02T05:34:22;101512.09;;;6.35;100.00
9141;BME280;46330;50.822;7.126;2023-02-02T05:36:53;101508.63;;;6.34;100.00
9141;BME280;46330;50.822;7.126;2023-02-02T05:39:21;101514.66;;;6.33;100.00
9141;BME280;46330;50.822;7.126;2023-02-02T05:41:49;101504.31;;;6.36;100.00
9141;BME280;46330;50.822;7.126;2023-02-02T05:44:16;101510.34;;;6.35;100.00
9141;BME280;46330;50.822;7.126;2023-02-02T05:46:44;101511.25;;;6.37;100.00
9141;BME280;46330;50.822;7.126;2023-02-02T05:49:13;101500.00;;;6.37;100.00
9141;BME280;46330;50.822;7.126;2023-02-02T05:51:42;101512.13;;;6.38;100.00
9141;BME280;46330;50.822;7.126;2023-02-02T05:54:13;101509.47;;;6.33;100.00
9141;BME280;46330;50.822;7.126;2023-02-02T05:56:45;101506.88;;;6.32;100.00
9141;BME280;46330;50.822;7.126;2023-02-02T05:59:13;101502.56;;;6.35;100.00
9141;BME280;46330;50.822;7.126;2023-02-02T06:01:41;101501.66;;;6.30;100.00
9141;BME280;46330;50.822;7.126;2023-02-02T06:04:09;101498.19;;;6.31;100.00
9141;BME280;46330;50.822;7.126;2023-02-02T06:06:37;101515.50;;;6.32;100.00
9141;BME280;46330;50.822;7.126;2023-02-02T06:09:06;101507.72;;;6.32;100.00
9141;BME280;46330;50.822;7.126;2023-02-02T06:11:36;101494.75;;;6.35;100.00
9141;BME280;46330;50.822;7.126;2023-02-02T06:14:06;101506.03;;;6.36;100.00
9141;BME280;46330;50.822;7.126;2023-02-02T06:16:34;101504.38;;;6.41;100.00
9141;BME280;46330;50.822;7.126;2023-02-02T06:19:02;101500.00;;;6.38;100.00
9141;BME280;46330;50.822;7.126;2023-02-02T06:21:30;101505.25;;;6.43;100.00
9141;BME280;46330;50.822;7.126;2023-02-02T06:23:58;101525.25;;;6.47;100.00
9141;BME280;46330;50.822;7.126;2023-02-02T06:26:27;101526.97;;;6.46;100.00
9141;BME280;46330;50.822;7.126;2023-02-02T06:28:56;101526.97;;;6.48;100.00
9141;BME280;46330;50.822;7.126;2023-02-02T06:31:25;101534.75;;;6.46;100.00
9141;BME280;46330;50.822;7.126;2023-02-02T06:33:54;101535.63;;;6.47;100.00
9141;BME280;46330;50.822;7.126;2023-02-02T06:36:23;101541.66;;;6.46;100.00
9141;BME280;46330;50.822;7.126;2023-02-02T06:38:53;101530.44;;;6.47;100.00
9141;BME280;46330;50.822;7.126;2023-02-02T06:41:22;101541.75;;;6.52;100.00
9141;BME280;46330;50.822;7.126;2023-02-02T06:43:50;101546.94;;;6.52;100.00
9141;BME280;46330;50.822;7.126;2023-02-02T06:46:19;101544.34;;;6.52;100.00
9141;BME280;46330;50.822;7.126;2023-02-02T06:48:47;101545.19;;;6.49;100.00
9141;BME280;46330;50.822;7.126;2023-02-02T06:51:15;101548.66;;;6.52;100.00
9141;BME280;46330;50.822;7.126;2023-02-02T06:53:43;101546.94;;;6.52;100.00
9141;BME280;46330;50.822;7.126;2023-02-02T06:56:11;101548.69;;;6.53;100.00
9141;BME280;46330;50.822;7.126;2023-02-02T06:58:39;101551.28;;;6.53;100.00
9141;BME280;46330;50.822;7.126;2023-02-02T07:01:09;101544.38;;;6.54;100.00
9141;BME280;46330;50.822;7.126;2023-02-02T07:03:39;101540.03;;;6.54;100.00
9141;BME280;46330;50.822;7.126;2023-02-02T07:06:12;101545.25;;;6.57;100.00
9141;BME280;46330;50.822;7.126;2023-02-02T07:08:40;101551.34;;;6.56;100.00
9141;BME280;46330;50.822;7.126;2023-02-02T07:11:08;101550.41;;;6.54;100.00
9141;BME280;46330;50.822;7.126;2023-02-02T07:13:41;101553.00;;;6.54;100.00
9141;BME280;46330;50.822;7.126;2023-02-02T07:16:09;101549.56;;;6.54;100.00
9141;BME280;46330;50.822;7.126;2023-02-02T07:18:40;101556.53;;;6.56;100.00
9141;BME280;46330;50.822;7.126;2023-02-02T07:21:15;101549.59;;;6.57;100.00
9141;BME280;46330;50.822;7.126;2023-02-02T07:23:44;101560.88;;;6.60;100.00
9141;BME280;46330;50.822;7.126;2023-02-02T07:26:13;101561.72;;;6.58;100.00
9141;BME280;46330;50.822;7.126;2023-02-02T07:28:41;101561.72;;;6.56;100.00
9141;BME280;46330;50.822;7.126;2023-02-02T07:31:14;101559.16;;;6.59;100.00
9141;BME280;46330;50.822;7.126;2023-02-02T07:33:45;101566.13;;;6.62;100.00
9141;BME280;46330;50.822;7.126;2023-02-02T07:36:15;101577.38;;;6.64;100.00
9141;BME280;46330;50.822;7.126;2023-02-02T07:38:44;101572.19;;;6.64;100.00
9141;BME280;46330;50.822;7.126;2023-02-02T07:41:14;101567.91;;;6.66;100.00
9141;BME280;46330;50.822;7.126;2023-02-02T07:43:45;101572.22;;;6.65;100.00
9141;BME280;46330;50.822;7.126;2023-02-02T07:46:14;101570.50;;;6.67;100.00
9141;BME280;46330;50.822;7.126;2023-02-02T07:48:44;101575.75;;;6.69;100.00
9141;BME280;46330;50.822;7.126;2023-02-02T07:51:13;101570.53;;;6.69;100.00
9141;BME280;46330;50.822;7.126;2023-02-02T07:53:42;101586.13;;;6.69;100.00
9141;BME280;46330;50.822;7.126;2023-02-02T07:56:13;101582.66;;;6.68;100.00
9141;BME280;46330;50.822;7.126;2023-02-02T07:58:41;101583.50;;;6.67;100.00
9141;BME280;46330;50.822;7.126;2023-02-02T08:01:11;101583.50;;;6.67;100.00
9141;BME280;46330;50.822;7.126;2023-02-02T08:03:39;101589.56;;;6.66;100.00
9141;BME280;46330;50.822;7.126;2023-02-02T08:06:11;101585.22;;;6.67;100.00
9141;BME280;46330;50.822;7.126;2023-02-02T08:08:40;101580.88;;;6.64;100.00
9141;BME280;46330;50.822;7.126;2023-02-02T08:11:09;101580.03;;;6.65;100.00
9141;BME280;46330;50.822;7.126;2023-02-02T08:13:38;101580.00;;;6.62;100.00
9141;BME280;46330;50.822;7.126;2023-02-02T08:16:06;101587.78;;;6.64;100.00
9141;BME280;46330;50.822;7.126;2023-02-02T08:18:35;101595.59;;;6.62;100.00
9141;BME280;46330;50.822;7.126;2023-02-02T08:21:05;101579.97;;;6.61;100.00
9141;BME280;46330;50.822;7.126;2023-02-02T08:23:35;101589.47;;;6.60;100.00
9141;BME280;46330;50.822;7.126;2023-02-02T08:26:05;101586.03;;;6.61;100.00
9141;BME280;46330;50.822;7.126;2023-02-02T08:28:33;101587.75;;;6.61;100.00
9141;BME280;46330;50.822;7.126;2023-02-02T08:31:07;101588.63;;;6.61;100.00
9141;BME280;46330;50.822;7.126;2023-02-02T08:33:35;101597.38;;;6.66;100.00
9141;BME280;46330;50.822;7.126;2023-02-02T08:36:09;101585.22;;;6.65;100.00
9141;BME280;46330;50.822;7.126;2023-02-02T08:38:39;101601.69;;;6.67;100.00
9141;BME280;46330;50.822;7.126;2023-02-02T08:41:09;101599.94;;;6.65;100.00
9141;BME280;46330;50.822;7.126;2023-02-02T08:43:38;101597.41;;;6.69;100.00
9141;BME280;46330;50.822;7.126;2023-02-02T08:46:07;101604.38;;;6.73;100.00
9141;BME280;46330;50.822;7.126;2023-02-02T08:48:36;101610.47;;;6.77;100.00
9141;BME280;46330;50.822;7.126;2023-02-02T08:51:06;101610.47;;;6.77;100.00
9141;BME280;46330;50.822;7.126;2023-02-02T08:53:34;101608.75;;;6.79;100.00
9141;BME280;46330;50.822;7.126;2023-02-02T08:56:04;101607.91;;;6.78;100.00
9141;BME280;46330;50.822;7.126;2023-02-02T08:58:33;101614.88;;;6.81;100.00
9141;BME280;46330;50.822;7.126;2023-02-02T09:01:05;101615.72;;;6.80;100.00
9141;BME280;46330;50.822;7.126;2023-02-02T09:03:34;101616.63;;;6.83;100.00
9141;BME280;46330;50.822;7.126;2023-02-02T09:06:05;101625.31;;;6.85;100.00
9141;BME280;46330;50.822;7.126;2023-02-02T09:08:33;101624.47;;;6.85;100.00
9141;BME280;46330;50.822;7.126;2023-02-02T09:11:07;101621.78;;;6.82;100.00
9141;BME280;46330;50.822;7.126;2023-02-02T09:13:37;101627.00;;;6.80;100.00
9141;BME280;46330;50.822;7.126;2023-02-02T09:16:07;101627.00;;;6.80;100.00
9141;BME280;46330;50.822;7.126;2023-02-02T09:18:36;101633.91;;;6.78;100.00
9141;BME280;46330;50.822;7.126;2023-02-02T09:21:06;101635.63;;;6.79;100.00
9141;BME280;46330;50.822;7.126;2023-02-02T09:23:36;101638.28;;;6.81;100.00
9141;BME280;46330;50.822;7.126;2023-02-02T09:26:15;101646.06;;;6.82;100.00
9141;BME280;46330;50.822;7.126;2023-02-02T09:29:01;101639.25;;;6.90;100.00
9141;BME280;46330;50.822;7.126;2023-02-02T09:31:32;101652.28;;;6.95;100.00
9141;BME280;46330;50.822;7.126;2023-02-02T09:34:00;101653.22;;;6.97;100.00
9141;BME280;46330;50.822;7.126;2023-02-02T09:36:29;101661.88;;;6.99;100.00
9141;BME280;46330;50.822;7.126;2023-02-02T09:38:56;101666.25;;;7.01;100.00
9141;BME280;46330;50.822;7.126;2023-02-02T09:44:42;101662.91;;;7.13;100.00
9141;BME280;46330;50.822;7.126;2023-02-02T09:47:16;101665.56;;;7.18;100.00
9141;BME280;46330;50.822;7.126;2023-02-02T09:49:53;101675.09;;;7.16;100.00
9141;BME280;46330;50.822;7.126;2023-02-02T09:52:25;101677.66;;;7.13;100.00
9141;BME280;46330;50.822;7.126;2023-02-02T09:54:58;101691.53;;;7.13;100.00
9141;BME280;46330;50.822;7.126;2023-02-02T09:57:34;101680.28;;;7.13;100.00
9141;BME280;46330;50.822;7.126;2023-02-02T10:00:18;101672.53;;;7.19;100.00
9141;BME280;46330;50.822;7.126;2023-02-02T10:02:48;101674.38;;;7.30;100.00
9141;BME280;46330;50.822;7.126;2023-02-02T10:05:23;101688.22;;;7.26;100.00
9141;BME280;46330;50.822;7.126;2023-02-02T10:07:56;101697.75;;;7.26;100.00
9141;BME280;46330;50.822;7.126;2023-02-02T10:10:31;101711.59;;;7.23;100.00
9141;BME280;46330;50.822;7.126;2023-02-02T10:13:05;101717.56;;;7.16;100.00
9141;BME280;46330;50.822;7.126;2023-02-02T10:15:43;101711.56;;;7.20;100.00
9141;BME280;46330;50.822;7.126;2023-02-02T10:18:19;101712.38;;;7.15;100.00
9141;BME280;46330;50.822;7.126;2023-02-02T10:20:54;101718.41;;;7.14;100.00
9141;BME280;46330;50.822;7.126;2023-02-02T10:23:25;101732.31;;;7.14;100.00
9141;BME280;46330;50.822;7.126;2023-02-02T10:25:56;101730.53;;;7.13;100.00
9141;BME280;46330;50.822;7.126;2023-02-02T10:28:53;101730.56;;;7.15;100.00
9141;BME280;46330;50.822;7.126;2023-02-02T10:31:37;101737.53;;;7.17;100.00
9141;BME280;46330;50.822;7.126;2023-02-02T10:34:14;101741.88;;;7.17;100.00
9141;BME280;46330;50.822;7.126;2023-02-02T10:39:42;101743.63;;;7.19;100.00
9141;BME280;46330;50.822;7.126;2023-02-02T10:42:20;101740.13;;;7.16;100.00
9141;BME280;46330;50.822;7.126;2023-02-02T10:44:57;101752.28;;;7.15;100.00
9141;BME280;46330;50.822;7.126;2023-02-02T10:47:29;101734.09;;;7.18;100.00
9141;BME280;46330;50.822;7.126;2023-02-02T10:50:06;101754.88;;;7.15;100.00
9141;BME280;46330;50.822;7.126;2023-02-02T10:52:43;101748.88;;;7.21;100.00
9141;BME280;46330;50.822;7.126;2023-02-02T10:55:20;101747.97;;;7.19;100.00
9141;BME280;46330;50.822;7.126;2023-02-02T10:57:56;101742.81;;;7.22;100.00
9141;BME280;46330;50.822;7.126;2023-02-02T11:00:31;101753.25;;;7.26;100.00
9141;BME280;46330;50.822;7.126;2023-02-02T11:03:03;101748.09;;;7.29;100.00
9141;BME280;46330;50.822;7.126;2023-02-02T11:05:32;101741.22;;;7.34;100.00
9141;BME280;46330;50.822;7.126;2023-02-02T11:08:18;101746.41;;;7.33;100.00
9141;BME280;46330;50.822;7.126;2023-02-02T11:10:49;101739.47;;;7.35;100.00
9141;BME280;46330;50.822;7.126;2023-02-02T11:13:25;101741.19;;;7.33;100.00
9141;BME280;46330;50.822;7.126;2023-02-02T11:16:18;101743.00;;;7.38;100.00
9141;BME280;46330;50.822;7.126;2023-02-02T11:18:48;101739.66;;;7.47;100.00
9141;BME280;46330;50.822;7.126;2023-02-02T11:21:22;101737.13;;;7.56;100.00
9141;BME280;46330;50.822;7.126;2023-02-02T11:23:56;101739.84;;;7.70;100.00
9141;BME280;46330;50.822;7.126;2023-02-02T11:26:26;101739.94;;;7.79;100.00
9141;BME280;46330;50.822;7.126;2023-02-02T11:29:12;101747.84;;;7.86;100.00
9141;BME280;46330;50.822;7.126;2023-02-02T11:31:41;101754.81;;;7.89;100.00
9141;BME280;46330;50.822;7.126;2023-02-02T11:34:16;101753.06;;;7.88;100.00
9141;BME280;46330;50.822;7.126;2023-02-02T11:36:58;101750.44;;;7.83;99.31
9141;BME280;46330;50.822;7.126;2023-02-02T11:39:26;101740.03;;;7.86;99.66
9141;BME280;46330;50.822;7.126;2023-02-02T11:42:00;101750.47;;;7.91;99.49
9141;BME280;46330;50.822;7.126;2023-02-02T11:44:29;101745.31;;;7.95;99.18
9141;BME280;46330;50.822;7.126;2023-02-02T11:47:01;101751.41;;;7.96;99.63
9141;BME280;46330;50.822;7.126;2023-02-02T11:49:36;101752.16;;;7.81;98.89
9141;BME280;46330;50.822;7.126;2023-02-02T11:52:15;101753.91;;;7.84;99.20
9141;BME280;46330;50.822;7.126;2023-02-02T11:54:46;101752.13;;;7.80;99.15
9141;BME280;46330;50.822;7.126;2023-02-02T11:57:17;101755.63;;;7.85;99.13
9141;BME280;46330;50.822;7.126;2023-02-02T11:59:47;101754.78;;;7.86;99.05
9141;BME280;46330;50.822;7.126;2023-02-02T12:02:27;101752.22;;;7.89;98.81
9141;BME280;46330;50.822;7.126;2023-02-02T12:07:49;101743.56;;;7.94;97.59
9141;BME280;46330;50.822;7.126;2023-02-02T12:10:21;101734.91;;;7.94;97.69
9141;BME280;46330;50.822;7.126;2023-02-02T12:12:59;101736.56;;;7.84;97.12
9141;BME280;46330;50.822;7.126;2023-02-02T12:15:43;101735.69;;;7.87;97.25
9141;BME280;46330;50.822;7.126;2023-02-02T12:18:25;101741.78;;;7.87;97.17
9141;BME280;46330;50.822;7.126;2023-02-02T12:21:03;101732.31;;;7.95;97.44
9141;BME280;46330;50.822;7.126;2023-02-02T12:23:49;101736.66;;;7.98;96.89
9141;BME280;46330;50.822;7.126;2023-02-02T12:26:21;101721.09;;;8.04;96.85
9141;BME280;46330;50.822;7.126;2023-02-02T12:31:47;101730.66;;;8.06;95.94
9141;BME280;46330;50.822;7.126;2023-02-02T12:34:24;101723.69;;;8.02;95.56
9141;BME280;46330;50.822;7.126;2023-02-02T12:36:58;101724.63;;;8.09;95.54
9141;BME280;46330;50.822;7.126;2023-02-02T12:39:38;101722.94;;;8.17;95.81
9141;BME280;46330;50.822;7.126;2023-02-02T12:42:21;101729.91;;;8.21;95.25
9141;BME280;46330;50.822;7.126;2023-02-02T12:45:25;101725.53;;;8.17;94.83
9141;BME280;46330;50.822;7.126;2023-02-02T12:48:08;101730.75;;;8.17;94.81
9141;BME280;46330;50.822;7.126;2023-02-02T12:50:44;101726.41;;;8.19;94.20
9141;BME280;46330;50.822;7.126;2023-02-02T12:53:27;101733.38;;;8.20;94.04
9141;BME280;46330;50.822;7.126;2023-02-02T12:56:08;101720.41;;;8.25;93.41
9141;BME280;46330;50.822;7.126;2023-02-02T12:58:48;101714.31;;;8.26;93.21
9141;BME280;46330;50.822;7.126;2023-02-02T13:01:28;101728.31;;;8.35;93.50
9141;BME280;46330;50.822;7.126;2023-02-02T13:04:15;101721.41;;;8.42;93.10
9141;BME280;46330;50.822;7.126;2023-02-02T13:09:59;101735.47;;;8.62;92.64
9141;BME280;46330;50.822;7.126;2023-02-02T13:12:32;101731.94;;;8.55;91.90
9141;BME280;46330;50.822;7.126;2023-02-02T13:15:04;101750.25;;;8.64;92.32
9141;BME280;46330;50.822;7.126;2023-02-02T13:17:35;101736.28;;;8.56;91.72
9141;BME280;46330;50.822;7.126;2023-02-02T13:20:15;101745.84;;;8.56;91.92
9141;BME280;46330;50.822;7.126;2023-02-02T13:22:46;101738.94;;;8.61;92.14
9141;BME280;46330;50.822;7.126;2023-02-02T13:25:24;101733.66;;;8.52;91.18
9141;BME280;46330;50.822;7.126;2023-02-02T13:27:55;101731.94;;;8.55;90.90
9141;BME280;46330;50.822;7.126;2023-02-02T13:30:30;101742.38;;;8.57;91.03
9141;BME280;46330;50.822;7.126;2023-02-02T13:33:01;101736.22;;;8.47;90.72
9141;BME280;46330;50.822;7.126;2023-02-02T13:35:33;101754.56;;;8.58;91.68
9141;BME280;46330;50.822;7.126;2023-02-02T13:38:10;101752.81;;;8.58;91.80
9141;BME280;46330;50.822;7.126;2023-02-02T13:40:41;101746.75;;;8.61;91.13
9141;BME280;46330;50.822;7.126;2023-02-02T13:43:24;101751.09;;;8.60;91.73
9141;BME280;46330;50.822;7.126;2023-02-02T13:46:03;101751.97;;;8.65;92.04